Startpagina
METAR-TAF:

METAR-TAF

Vliegvelden :

Weno, Weno Island, Micronesië

breedte: 07-28N, lengte: 151-51E, hoogte: 3 m

Actueel weer

Dit bericht is 57 minuten geleden gemaakt, om 01:50 UTC
Wind 6 kt uit het oosten
Temperatuur 31°C
Vochtigheid 79%
Druk 1008 hPa
Zicht: 24.1 km
Verspreide wolken op 1400 ft, Stapelwolken.
Gebroken wolken op 12000 ft
Geheel bewolkt op 28000 ft

METAR: PTKK 250150Z 09006KT 15SM SCT014TCU BKN120 OVC280 31/27 A2978 RMK TCU N AND E SLP088 T03110267

Tijdstip: 12:47 (02:47 UTC)

Verwachting

Dit bericht is 3 uur en het 4 minuten geleden gemaakt, om 23:43 UTC
Verwachting geldig van 25 om 00 UTC tot 25 om 24 UTC
Wind 8 kt uit het oostnoordoosten
Zicht: 10 km
Verspreide wolken op 1600 ft
Verspreide wolken op 12000 ft
buien in de omgeving

TAF: PTKK 242343Z 2500/2524 06008KT P6SM VCSH SCT016 SCT120

Waarnemingen en weersverwachtingen van meer dan 4000 vliegvelden (METAR en TAF).

De beschikbare stations zijn de gele en rode punten op de kaart.

Ga met uw muis naar het station om de naam te zien.

Klik dan om waarnemingen en weersverwachtingen te zien.

kaart wijzigen: klik op de groene knoppen met een zwart kruis om in te zoomen, op de groene knop met een streepje om uit te zoomen of op de groene pijlen voor aangrenzende kaarten.


METAR-TAF: